Terminal Aerodrome Forecast
Issued by NWS Sioux Falls, SD

Home | Current Version | Previous Version | Text Only | Print | Product List | Glossary On
Versions: 1 2 3 4 5 6 7 8 9 10 11 12 13 14 15
000
FTUS43 KFSD 191335 AAA
TAFHON
TAF AMD
KHON 191335Z 1914/2012 16013G20KT P6SM BKN015
     FM191600 22012KT P6SM SCT020 BKN100
     FM191800 25011KT P6SM SCT025 BKN140
     FM200000 28008KT P6SM SCT120=

USA.gov is the U.S. government's official web portal to all federal, state and local government web resources and services.